sensor_id;sensor_type;location;lat;lon;timestamp;P1;durP1;ratioP1;P2;durP2;ratioP2
61391;SDS011;47261;52.892;5.738;2024-03-02T00:00:42;2.67;;;0.90;;
61391;SDS011;47261;52.892;5.738;2024-03-02T00:03:08;2.72;;;0.60;;
61391;SDS011;47261;52.892;5.738;2024-03-02T00:05:39;3.60;;;1.00;;
61391;SDS011;47261;52.892;5.738;2024-03-02T00:08:05;2.60;;;0.95;;
61391;SDS011;47261;52.892;5.738;2024-03-02T00:13:05;2.30;;;0.73;;
61391;SDS011;47261;52.892;5.738;2024-03-02T00:18:10;4.20;;;0.90;;
61391;SDS011;47261;52.892;5.738;2024-03-02T00:20:37;3.45;;;0.80;;
61391;SDS011;47261;52.892;5.738;2024-03-02T00:23:08;4.57;;;0.75;;
61391;SDS011;47261;52.892;5.738;2024-03-02T00:28:01;2.80;;;0.85;;
61391;SDS011;47261;52.892;5.738;2024-03-02T00:33:10;2.95;;;1.00;;
61391;SDS011;47261;52.892;5.738;2024-03-02T00:35:36;3.90;;;1.15;;
61391;SDS011;47261;52.892;5.738;2024-03-02T00:38:08;3.10;;;0.73;;
61391;SDS011;47261;52.892;5.738;2024-03-02T00:40:33;3.30;;;0.90;;
61391;SDS011;47261;52.892;5.738;2024-03-02T00:42:59;4.37;;;1.10;;
61391;SDS011;47261;52.892;5.738;2024-03-02T00:45:25;3.72;;;1.00;;
61391;SDS011;47261;52.892;5.738;2024-03-02T00:47:51;4.38;;;1.08;;
61391;SDS011;47261;52.892;5.738;2024-03-02T00:50:17;4.60;;;1.23;;
61391;SDS011;47261;52.892;5.738;2024-03-02T00:52:43;2.78;;;0.70;;
61391;SDS011;47261;52.892;5.738;2024-03-02T00:55:09;5.05;;;1.17;;
61391;SDS011;47261;52.892;5.738;2024-03-02T00:57:35;2.73;;;0.80;;
61391;SDS011;47261;52.892;5.738;2024-03-02T01:00:00;5.05;;;1.13;;
61391;SDS011;47261;52.892;5.738;2024-03-02T01:02:27;5.47;;;1.17;;
61391;SDS011;47261;52.892;5.738;2024-03-02T01:04:54;3.30;;;0.80;;
61391;SDS011;47261;52.892;5.738;2024-03-02T01:07:19;3.75;;;1.08;;
61391;SDS011;47261;52.892;5.738;2024-03-02T01:09:45;4.70;;;1.20;;
61391;SDS011;47261;52.892;5.738;2024-03-02T01:12:11;3.53;;;0.83;;
61391;SDS011;47261;52.892;5.738;2024-03-02T01:14:36;3.10;;;0.85;;
61391;SDS011;47261;52.892;5.738;2024-03-02T01:17:02;5.10;;;1.03;;
61391;SDS011;47261;52.892;5.738;2024-03-02T01:19:29;4.45;;;1.20;;
61391;SDS011;47261;52.892;5.738;2024-03-02T01:21:55;6.93;;;0.80;;
61391;SDS011;47261;52.892;5.738;2024-03-02T01:24:21;2.97;;;0.77;;
61391;SDS011;47261;52.892;5.738;2024-03-02T01:26:46;2.63;;;0.82;;
61391;SDS011;47261;52.892;5.738;2024-03-02T01:29:12;4.17;;;1.10;;
61391;SDS011;47261;52.892;5.738;2024-03-02T01:31:37;2.70;;;0.80;;
61391;SDS011;47261;52.892;5.738;2024-03-02T01:34:07;3.53;;;0.95;;
61391;SDS011;47261;52.892;5.738;2024-03-02T01:36:33;4.25;;;1.02;;
61391;SDS011;47261;52.892;5.738;2024-03-02T01:38:58;2.53;;;0.93;;
61391;SDS011;47261;52.892;5.738;2024-03-02T01:41:24;3.10;;;0.95;;
61391;SDS011;47261;52.892;5.738;2024-03-02T01:43:50;4.22;;;1.10;;
61391;SDS011;47261;52.892;5.738;2024-03-02T01:46:16;3.60;;;1.03;;
61391;SDS011;47261;52.892;5.738;2024-03-02T01:48:41;2.95;;;0.80;;
61391;SDS011;47261;52.892;5.738;2024-03-02T01:51:07;2.93;;;1.00;;
61391;SDS011;47261;52.892;5.738;2024-03-02T01:53:33;2.83;;;1.00;;
61391;SDS011;47261;52.892;5.738;2024-03-02T01:56:00;4.70;;;0.68;;
61391;SDS011;47261;52.892;5.738;2024-03-02T01:58:26;4.83;;;0.70;;
61391;SDS011;47261;52.892;5.738;2024-03-02T02:00:52;5.90;;;1.33;;
61391;SDS011;47261;52.892;5.738;2024-03-02T02:03:18;5.32;;;1.00;;
61391;SDS011;47261;52.892;5.738;2024-03-02T02:05:43;3.87;;;0.70;;
61391;SDS011;47261;52.892;5.738;2024-03-02T02:08:09;3.37;;;0.80;;
61391;SDS011;47261;52.892;5.738;2024-03-02T02:10:35;4.07;;;0.90;;
61391;SDS011;47261;52.892;5.738;2024-03-02T02:13:01;2.97;;;0.90;;
61391;SDS011;47261;52.892;5.738;2024-03-02T02:15:28;2.92;;;0.93;;
61391;SDS011;47261;52.892;5.738;2024-03-02T02:17:54;3.37;;;0.93;;
61391;SDS011;47261;52.892;5.738;2024-03-02T02:20:21;3.67;;;0.80;;
61391;SDS011;47261;52.892;5.738;2024-03-02T02:25:25;1.63;;;0.40;;
61391;SDS011;47261;52.892;5.738;2024-03-02T02:27:51;4.05;;;0.77;;
61391;SDS011;47261;52.892;5.738;2024-03-02T02:30:20;2.25;;;0.60;;
61391;SDS011;47261;52.892;5.738;2024-03-02T02:32:55;2.95;;;0.60;;
61391;SDS011;47261;52.892;5.738;2024-03-02T02:35:22;3.63;;;0.63;;
61391;SDS011;47261;52.892;5.738;2024-03-02T02:37:49;2.88;;;0.70;;
61391;SDS011;47261;52.892;5.738;2024-03-02T02:40:17;2.22;;;0.40;;
61391;SDS011;47261;52.892;5.738;2024-03-02T02:42:44;2.22;;;0.50;;
61391;SDS011;47261;52.892;5.738;2024-03-02T02:45:10;1.55;;;0.20;;
61391;SDS011;47261;52.892;5.738;2024-03-02T02:47:37;1.08;;;0.25;;
61391;SDS011;47261;52.892;5.738;2024-03-02T02:50:03;1.02;;;0.30;;
61391;SDS011;47261;52.892;5.738;2024-03-02T02:52:33;3.67;;;0.30;;
61391;SDS011;47261;52.892;5.738;2024-03-02T02:55:00;2.97;;;0.50;;
61391;SDS011;47261;52.892;5.738;2024-03-02T02:57:27;3.15;;;0.30;;
61391;SDS011;47261;52.892;5.738;2024-03-02T02:59:55;1.15;;;0.30;;
61391;SDS011;47261;52.892;5.738;2024-03-02T03:02:21;3.47;;;0.30;;
61391;SDS011;47261;52.892;5.738;2024-03-02T03:04:47;2.22;;;0.40;;
61391;SDS011;47261;52.892;5.738;2024-03-02T03:07:12;3.97;;;0.50;;
61391;SDS011;47261;52.892;5.738;2024-03-02T03:09:38;1.45;;;0.35;;
61391;SDS011;47261;52.892;5.738;2024-03-02T03:12:04;1.23;;;0.23;;
61391;SDS011;47261;52.892;5.738;2024-03-02T03:14:29;1.90;;;0.38;;
61391;SDS011;47261;52.892;5.738;2024-03-02T03:16:55;0.80;;;0.20;;
61391;SDS011;47261;52.892;5.738;2024-03-02T03:19:21;1.70;;;0.30;;
61391;SDS011;47261;52.892;5.738;2024-03-02T03:21:46;0.67;;;0.20;;
61391;SDS011;47261;52.892;5.738;2024-03-02T03:24:12;1.57;;;0.20;;
61391;SDS011;47261;52.892;5.738;2024-03-02T03:26:37;1.20;;;0.20;;
61391;SDS011;47261;52.892;5.738;2024-03-02T03:29:03;0.33;;;0.10;;
61391;SDS011;47261;52.892;5.738;2024-03-02T03:31:29;1.15;;;0.40;;
61391;SDS011;47261;52.892;5.738;2024-03-02T03:33:55;1.60;;;0.20;;
61391;SDS011;47261;52.892;5.738;2024-03-02T03:36:20;0.93;;;0.20;;
61391;SDS011;47261;52.892;5.738;2024-03-02T03:38:46;3.83;;;0.30;;
61391;SDS011;47261;52.892;5.738;2024-03-02T03:41:11;1.38;;;0.30;;
61391;SDS011;47261;52.892;5.738;2024-03-02T03:43:37;0.77;;;0.10;;
61391;SDS011;47261;52.892;5.738;2024-03-02T03:46:03;1.03;;;0.20;;
61391;SDS011;47261;52.892;5.738;2024-03-02T03:48:28;1.20;;;0.17;;
61391;SDS011;47261;52.892;5.738;2024-03-02T03:50:56;0.43;;;0.10;;
61391;SDS011;47261;52.892;5.738;2024-03-02T03:53:21;0.90;;;0.20;;
61391;SDS011;47261;52.892;5.738;2024-03-02T03:55:47;0.80;;;0.10;;
61391;SDS011;47261;52.892;5.738;2024-03-02T03:58:14;0.63;;;0.10;;
61391;SDS011;47261;52.892;5.738;2024-03-02T04:00:41;0.77;;;0.10;;
61391;SDS011;47261;52.892;5.738;2024-03-02T04:03:07;0.70;;;0.20;;
61391;SDS011;47261;52.892;5.738;2024-03-02T04:05:33;0.30;;;0.08;;
61391;SDS011;47261;52.892;5.738;2024-03-02T04:07:59;2.88;;;0.20;;
61391;SDS011;47261;52.892;5.738;2024-03-02T04:10:25;1.93;;;0.20;;
61391;SDS011;47261;52.892;5.738;2024-03-02T04:12:51;0.80;;;0.20;;
61391;SDS011;47261;52.892;5.738;2024-03-02T04:15:16;1.00;;;0.10;;
61391;SDS011;47261;52.892;5.738;2024-03-02T04:17:43;0.13;;;0.08;;
61391;SDS011;47261;52.892;5.738;2024-03-02T04:20:09;0.60;;;0.20;;
61391;SDS011;47261;52.892;5.738;2024-03-02T04:22:37;1.70;;;0.20;;
61391;SDS011;47261;52.892;5.738;2024-03-02T04:25:03;1.88;;;0.20;;
61391;SDS011;47261;52.892;5.738;2024-03-02T04:27:30;0.90;;;0.10;;
61391;SDS011;47261;52.892;5.738;2024-03-02T04:29:57;2.60;;;0.30;;
61391;SDS011;47261;52.892;5.738;2024-03-02T04:32:22;1.08;;;0.20;;
61391;SDS011;47261;52.892;5.738;2024-03-02T04:34:48;0.57;;;0.20;;
61391;SDS011;47261;52.892;5.738;2024-03-02T04:37:14;1.88;;;0.10;;
61391;SDS011;47261;52.892;5.738;2024-03-02T04:39:40;1.48;;;0.10;;
61391;SDS011;47261;52.892;5.738;2024-03-02T04:42:05;0.37;;;0.10;;
61391;SDS011;47261;52.892;5.738;2024-03-02T04:44:31;1.40;;;0.13;;
61391;SDS011;47261;52.892;5.738;2024-03-02T04:46:57;0.85;;;0.20;;
61391;SDS011;47261;52.892;5.738;2024-03-02T04:49:23;1.08;;;0.20;;
61391;SDS011;47261;52.892;5.738;2024-03-02T04:51:48;0.40;;;0.10;;
61391;SDS011;47261;52.892;5.738;2024-03-02T04:54:14;0.90;;;0.15;;
61391;SDS011;47261;52.892;5.738;2024-03-02T04:56:40;1.13;;;0.10;;
61391;SDS011;47261;52.892;5.738;2024-03-02T04:59:09;0.93;;;0.20;;
61391;SDS011;47261;52.892;5.738;2024-03-02T05:01:35;0.98;;;0.10;;
61391;SDS011;47261;52.892;5.738;2024-03-02T05:04:01;0.93;;;0.17;;
61391;SDS011;47261;52.892;5.738;2024-03-02T05:06:27;0.70;;;0.17;;
61391;SDS011;47261;52.892;5.738;2024-03-02T05:08:52;1.00;;;0.30;;
61391;SDS011;47261;52.892;5.738;2024-03-02T05:11:18;1.83;;;0.10;;
61391;SDS011;47261;52.892;5.738;2024-03-02T05:14:02;1.92;;;0.20;;
61391;SDS011;47261;52.892;5.738;2024-03-02T05:16:28;0.88;;;0.10;;
61391;SDS011;47261;52.892;5.738;2024-03-02T05:18:53;0.73;;;0.10;;
61391;SDS011;47261;52.892;5.738;2024-03-02T05:21:19;1.10;;;0.20;;
61391;SDS011;47261;52.892;5.738;2024-03-02T05:23:45;1.88;;;0.20;;
61391;SDS011;47261;52.892;5.738;2024-03-02T05:26:10;2.80;;;0.20;;
61391;SDS011;47261;52.892;5.738;2024-03-02T05:28:39;0.85;;;0.10;;
61391;SDS011;47261;52.892;5.738;2024-03-02T05:31:04;0.60;;;0.20;;
61391;SDS011;47261;52.892;5.738;2024-03-02T05:33:30;2.00;;;0.20;;
61391;SDS011;47261;52.892;5.738;2024-03-02T05:35:58;1.15;;;0.10;;
61391;SDS011;47261;52.892;5.738;2024-03-02T05:38:23;2.03;;;0.30;;
61391;SDS011;47261;52.892;5.738;2024-03-02T05:40:49;2.17;;;0.17;;
61391;SDS011;47261;52.892;5.738;2024-03-02T05:43:15;1.27;;;0.20;;
61391;SDS011;47261;52.892;5.738;2024-03-02T05:45:41;0.40;;;0.10;;
61391;SDS011;47261;52.892;5.738;2024-03-02T05:48:07;1.37;;;0.20;;
61391;SDS011;47261;52.892;5.738;2024-03-02T05:50:32;0.95;;;0.15;;
61391;SDS011;47261;52.892;5.738;2024-03-02T05:52:58;0.82;;;0.20;;
61391;SDS011;47261;52.892;5.738;2024-03-02T05:55:24;1.63;;;0.20;;
61391;SDS011;47261;52.892;5.738;2024-03-02T05:57:49;1.65;;;0.20;;
61391;SDS011;47261;52.892;5.738;2024-03-02T06:00:33;2.55;;;0.30;;
61391;SDS011;47261;52.892;5.738;2024-03-02T06:02:59;0.50;;;0.10;;
61391;SDS011;47261;52.892;5.738;2024-03-02T06:05:25;0.77;;;0.10;;
61391;SDS011;47261;52.892;5.738;2024-03-02T06:07:50;2.13;;;0.20;;
61391;SDS011;47261;52.892;5.738;2024-03-02T06:10:16;1.77;;;0.30;;
61391;SDS011;47261;52.892;5.738;2024-03-02T06:12:42;1.67;;;0.30;;
61391;SDS011;47261;52.892;5.738;2024-03-02T06:15:08;1.35;;;0.15;;
61391;SDS011;47261;52.892;5.738;2024-03-02T06:17:35;3.13;;;0.20;;
61391;SDS011;47261;52.892;5.738;2024-03-02T06:20:01;1.63;;;0.40;;
61391;SDS011;47261;52.892;5.738;2024-03-02T06:22:27;1.33;;;0.20;;
61391;SDS011;47261;52.892;5.738;2024-03-02T06:24:52;2.90;;;0.37;;
61391;SDS011;47261;52.892;5.738;2024-03-02T06:27:18;1.80;;;0.28;;
61391;SDS011;47261;52.892;5.738;2024-03-02T06:29:44;1.27;;;0.20;;
61391;SDS011;47261;52.892;5.738;2024-03-02T06:32:09;1.50;;;0.40;;
61391;SDS011;47261;52.892;5.738;2024-03-02T06:34:35;3.77;;;0.40;;
61391;SDS011;47261;52.892;5.738;2024-03-02T06:37:00;4.33;;;0.40;;
61391;SDS011;47261;52.892;5.738;2024-03-02T06:39:26;1.73;;;0.20;;
61391;SDS011;47261;52.892;5.738;2024-03-02T06:41:52;1.83;;;0.20;;
61391;SDS011;47261;52.892;5.738;2024-03-02T06:44:17;1.80;;;0.30;;
61391;SDS011;47261;52.892;5.738;2024-03-02T06:46:43;3.13;;;0.35;;
61391;SDS011;47261;52.892;5.738;2024-03-02T06:49:08;1.43;;;0.30;;
61391;SDS011;47261;52.892;5.738;2024-03-02T06:51:35;1.65;;;0.30;;
61391;SDS011;47261;52.892;5.738;2024-03-02T06:54:01;1.67;;;0.30;;
61391;SDS011;47261;52.892;5.738;2024-03-02T06:56:27;1.27;;;0.20;;
61391;SDS011;47261;52.892;5.738;2024-03-02T06:58:52;3.17;;;0.40;;
61391;SDS011;47261;52.892;5.738;2024-03-02T07:01:18;4.27;;;0.40;;
61391;SDS011;47261;52.892;5.738;2024-03-02T07:03:45;3.15;;;0.30;;
61391;SDS011;47261;52.892;5.738;2024-03-02T07:06:11;4.60;;;0.20;;
61391;SDS011;47261;52.892;5.738;2024-03-02T07:08:36;2.10;;;0.40;;
61391;SDS011;47261;52.892;5.738;2024-03-02T07:11:02;1.73;;;0.30;;
61391;SDS011;47261;52.892;5.738;2024-03-02T07:13:28;2.28;;;0.30;;
61391;SDS011;47261;52.892;5.738;2024-03-02T07:15:53;4.63;;;0.30;;
61391;SDS011;47261;52.892;5.738;2024-03-02T07:18:28;2.58;;;0.30;;
61391;SDS011;47261;52.892;5.738;2024-03-02T07:20:55;1.80;;;0.30;;
61391;SDS011;47261;52.892;5.738;2024-03-02T07:23:23;2.33;;;0.30;;
61391;SDS011;47261;52.892;5.738;2024-03-02T07:25:52;1.97;;;0.20;;
61391;SDS011;47261;52.892;5.738;2024-03-02T07:28:21;3.55;;;0.30;;
61391;SDS011;47261;52.892;5.738;2024-03-02T07:31:02;0.95;;;0.25;;
61391;SDS011;47261;52.892;5.738;2024-03-02T07:33:29;0.52;;;0.10;;
61391;SDS011;47261;52.892;5.738;2024-03-02T07:35:55;2.20;;;0.30;;
61391;SDS011;47261;52.892;5.738;2024-03-02T07:38:21;3.50;;;0.40;;
61391;SDS011;47261;52.892;5.738;2024-03-02T07:40:48;1.58;;;0.43;;
61391;SDS011;47261;52.892;5.738;2024-03-02T07:43:17;3.95;;;0.22;;
61391;SDS011;47261;52.892;5.738;2024-03-02T07:45:44;3.20;;;0.40;;
61391;SDS011;47261;52.892;5.738;2024-03-02T07:48:10;2.38;;;0.22;;
61391;SDS011;47261;52.892;5.738;2024-03-02T07:50:36;5.60;;;0.33;;
61391;SDS011;47261;52.892;5.738;2024-03-02T07:53:02;2.65;;;0.20;;
61391;SDS011;47261;52.892;5.738;2024-03-02T07:55:29;0.98;;;0.10;;
61391;SDS011;47261;52.892;5.738;2024-03-02T07:57:55;1.35;;;0.45;;
61391;SDS011;47261;52.892;5.738;2024-03-02T08:00:21;2.53;;;0.30;;
61391;SDS011;47261;52.892;5.738;2024-03-02T08:02:47;2.08;;;0.20;;
61391;SDS011;47261;52.892;5.738;2024-03-02T08:05:13;4.30;;;0.35;;
61391;SDS011;47261;52.892;5.738;2024-03-02T08:07:39;3.80;;;0.30;;
61391;SDS011;47261;52.892;5.738;2024-03-02T08:10:06;1.87;;;0.20;;
61391;SDS011;47261;52.892;5.738;2024-03-02T08:12:32;1.70;;;0.22;;
61391;SDS011;47261;52.892;5.738;2024-03-02T08:14:57;0.93;;;0.20;;
61391;SDS011;47261;52.892;5.738;2024-03-02T08:17:23;1.87;;;0.10;;
61391;SDS011;47261;52.892;5.738;2024-03-02T08:19:49;2.73;;;0.20;;
61391;SDS011;47261;52.892;5.738;2024-03-02T08:22:15;3.30;;;0.30;;
61391;SDS011;47261;52.892;5.738;2024-03-02T08:24:40;4.70;;;0.28;;
61391;SDS011;47261;52.892;5.738;2024-03-02T08:27:06;0.93;;;0.13;;
61391;SDS011;47261;52.892;5.738;2024-03-02T08:29:32;2.15;;;0.30;;
61391;SDS011;47261;52.892;5.738;2024-03-02T08:31:57;2.43;;;0.30;;
61391;SDS011;47261;52.892;5.738;2024-03-02T08:34:23;2.10;;;0.20;;
61391;SDS011;47261;52.892;5.738;2024-03-02T08:36:49;1.00;;;0.20;;
61391;SDS011;47261;52.892;5.738;2024-03-02T08:39:15;1.00;;;0.20;;
61391;SDS011;47261;52.892;5.738;2024-03-02T08:41:47;3.17;;;0.30;;
61391;SDS011;47261;52.892;5.738;2024-03-02T08:44:13;4.20;;;0.50;;
61391;SDS011;47261;52.892;5.738;2024-03-02T08:46:39;0.98;;;0.13;;
61391;SDS011;47261;52.892;5.738;2024-03-02T08:49:05;2.58;;;0.30;;
61391;SDS011;47261;52.892;5.738;2024-03-02T08:51:31;2.53;;;0.20;;
61391;SDS011;47261;52.892;5.738;2024-03-02T08:53:57;0.85;;;0.20;;
61391;SDS011;47261;52.892;5.738;2024-03-02T08:56:23;3.00;;;0.30;;
61391;SDS011;47261;52.892;5.738;2024-03-02T08:58:52;3.30;;;0.52;;
61391;SDS011;47261;52.892;5.738;2024-03-02T09:01:18;2.27;;;0.20;;
61391;SDS011;47261;52.892;5.738;2024-03-02T09:03:47;2.20;;;0.30;;
61391;SDS011;47261;52.892;5.738;2024-03-02T09:06:14;0.85;;;0.20;;
61391;SDS011;47261;52.892;5.738;2024-03-02T09:08:42;1.85;;;0.30;;
61391;SDS011;47261;52.892;5.738;2024-03-02T09:11:08;1.33;;;0.20;;
61391;SDS011;47261;52.892;5.738;2024-03-02T09:13:35;2.50;;;0.37;;
61391;SDS011;47261;52.892;5.738;2024-03-02T09:16:02;1.85;;;0.40;;
61391;SDS011;47261;52.892;5.738;2024-03-02T09:18:29;1.52;;;0.20;;
61391;SDS011;47261;52.892;5.738;2024-03-02T09:20:54;1.90;;;0.23;;
61391;SDS011;47261;52.892;5.738;2024-03-02T09:23:20;1.15;;;0.20;;
61391;SDS011;47261;52.892;5.738;2024-03-02T09:25:46;1.73;;;0.20;;
61391;SDS011;47261;52.892;5.738;2024-03-02T09:28:12;1.80;;;0.30;;
61391;SDS011;47261;52.892;5.738;2024-03-02T09:30:37;1.60;;;0.27;;
61391;SDS011;47261;52.892;5.738;2024-03-02T09:33:03;0.82;;;0.20;;
61391;SDS011;47261;52.892;5.738;2024-03-02T09:35:29;2.05;;;0.30;;
61391;SDS011;47261;52.892;5.738;2024-03-02T09:37:55;3.03;;;0.30;;
61391;SDS011;47261;52.892;5.738;2024-03-02T09:40:21;3.13;;;0.38;;
61391;SDS011;47261;52.892;5.738;2024-03-02T09:42:47;1.88;;;0.30;;
61391;SDS011;47261;52.892;5.738;2024-03-02T09:45:18;2.13;;;0.30;;
61391;SDS011;47261;52.892;5.738;2024-03-02T09:47:48;0.52;;;0.20;;
61391;SDS011;47261;52.892;5.738;2024-03-02T09:50:14;1.17;;;0.20;;
61391;SDS011;47261;52.892;5.738;2024-03-02T09:52:40;1.50;;;0.40;;
61391;SDS011;47261;52.892;5.738;2024-03-02T09:55:07;2.75;;;0.30;;
61391;SDS011;47261;52.892;5.738;2024-03-02T09:57:33;1.52;;;0.22;;
61391;SDS011;47261;52.892;5.738;2024-03-02T09:59:59;4.17;;;0.60;;
61391;SDS011;47261;52.892;5.738;2024-03-02T10:02:25;1.95;;;0.40;;
61391;SDS011;47261;52.892;5.738;2024-03-02T10:04:51;1.17;;;0.17;;
61391;SDS011;47261;52.892;5.738;2024-03-02T10:07:17;2.13;;;0.40;;
61391;SDS011;47261;52.892;5.738;2024-03-02T10:09:45;1.63;;;0.35;;
61391;SDS011;47261;52.892;5.738;2024-03-02T10:12:12;6.33;;;0.30;;
61391;SDS011;47261;52.892;5.738;2024-03-02T10:14:38;1.65;;;0.20;;
61391;SDS011;47261;52.892;5.738;2024-03-02T10:17:05;1.55;;;0.20;;
61391;SDS011;47261;52.892;5.738;2024-03-02T10:19:35;0.82;;;0.30;;
61391;SDS011;47261;52.892;5.738;2024-03-02T10:22:03;3.20;;;0.22;;
61391;SDS011;47261;52.892;5.738;2024-03-02T10:24:43;0.80;;;0.20;;
61391;SDS011;47261;52.892;5.738;2024-03-02T10:27:11;1.83;;;0.20;;
61391;SDS011;47261;52.892;5.738;2024-03-02T10:29:47;1.02;;;0.17;;
61391;SDS011;47261;52.892;5.738;2024-03-02T10:32:13;3.13;;;0.32;;
61391;SDS011;47261;52.892;5.738;2024-03-02T10:34:40;2.38;;;0.30;;
61391;SDS011;47261;52.892;5.738;2024-03-02T10:37:06;5.50;;;0.50;;
61391;SDS011;47261;52.892;5.738;2024-03-02T10:39:33;0.52;;;0.20;;
61391;SDS011;47261;52.892;5.738;2024-03-02T10:42:00;4.35;;;0.30;;
61391;SDS011;47261;52.892;5.738;2024-03-02T10:44:30;3.00;;;0.70;;
61391;SDS011;47261;52.892;5.738;2024-03-02T10:46:57;2.42;;;0.30;;
61391;SDS011;47261;52.892;5.738;2024-03-02T10:49:26;3.30;;;0.30;;
61391;SDS011;47261;52.892;5.738;2024-03-02T10:51:53;3.53;;;0.38;;
61391;SDS011;47261;52.892;5.738;2024-03-02T10:54:19;3.47;;;0.30;;
61391;SDS011;47261;52.892;5.738;2024-03-02T10:56:51;4.00;;;0.40;;
61391;SDS011;47261;52.892;5.738;2024-03-02T11:01:51;3.67;;;0.63;;
61391;SDS011;47261;52.892;5.738;2024-03-02T11:04:20;1.65;;;0.30;;
61391;SDS011;47261;52.892;5.738;2024-03-02T11:06:49;0.75;;;0.25;;
61391;SDS011;47261;52.892;5.738;2024-03-02T11:09:18;4.40;;;0.40;;
61391;SDS011;47261;52.892;5.738;2024-03-02T11:11:49;1.65;;;0.20;;
61391;SDS011;47261;52.892;5.738;2024-03-02T11:14:27;3.78;;;0.22;;
61391;SDS011;47261;52.892;5.738;2024-03-02T11:16:57;2.05;;;0.20;;
61391;SDS011;47261;52.892;5.738;2024-03-02T11:19:24;2.42;;;0.22;;
61391;SDS011;47261;52.892;5.738;2024-03-02T11:21:51;1.23;;;0.30;;
61391;SDS011;47261;52.892;5.738;2024-03-02T11:26:49;1.95;;;0.30;;
61391;SDS011;47261;52.892;5.738;2024-03-02T11:32:00;1.60;;;0.40;;
61391;SDS011;47261;52.892;5.738;2024-03-02T11:34:30;2.47;;;0.27;;
61391;SDS011;47261;52.892;5.738;2024-03-02T11:37:02;1.98;;;0.20;;
61391;SDS011;47261;52.892;5.738;2024-03-02T11:39:29;4.57;;;0.50;;
61391;SDS011;47261;52.892;5.738;2024-03-02T11:41:56;1.98;;;0.30;;
61391;SDS011;47261;52.892;5.738;2024-03-02T11:44:27;1.88;;;0.20;;
61391;SDS011;47261;52.892;5.738;2024-03-02T11:47:00;3.27;;;0.50;;
61391;SDS011;47261;52.892;5.738;2024-03-02T11:49:45;3.90;;;0.40;;
61391;SDS011;47261;52.892;5.738;2024-03-02T11:52:14;2.65;;;0.32;;
61391;SDS011;47261;52.892;5.738;2024-03-02T11:54:42;2.65;;;0.43;;
61391;SDS011;47261;52.892;5.738;2024-03-02T11:57:13;3.50;;;0.60;;
61391;SDS011;47261;52.892;5.738;2024-03-02T11:59:44;5.37;;;0.63;;
61391;SDS011;47261;52.892;5.738;2024-03-02T12:02:17;3.50;;;0.40;;
61391;SDS011;47261;52.892;5.738;2024-03-02T12:04:47;6.95;;;0.40;;
61391;SDS011;47261;52.892;5.738;2024-03-02T12:07:20;2.47;;;0.20;;
61391;SDS011;47261;52.892;5.738;2024-03-02T12:09:47;5.32;;;0.50;;
61391;SDS011;47261;52.892;5.738;2024-03-02T12:12:14;1.93;;;0.20;;
61391;SDS011;47261;52.892;5.738;2024-03-02T12:14:52;4.13;;;0.40;;
61391;SDS011;47261;52.892;5.738;2024-03-02T12:17:22;2.95;;;0.60;;
61391;SDS011;47261;52.892;5.738;2024-03-02T12:19:48;3.50;;;0.20;;
61391;SDS011;47261;52.892;5.738;2024-03-02T12:22:14;2.17;;;0.20;;
61391;SDS011;47261;52.892;5.738;2024-03-02T12:24:40;1.27;;;0.30;;
61391;SDS011;47261;52.892;5.738;2024-03-02T12:27:06;3.63;;;0.40;;
61391;SDS011;47261;52.892;5.738;2024-03-02T12:29:32;1.73;;;0.30;;
61391;SDS011;47261;52.892;5.738;2024-03-02T12:31:59;2.38;;;0.17;;
61391;SDS011;47261;52.892;5.738;2024-03-02T12:34:27;2.15;;;0.30;;
61391;SDS011;47261;52.892;5.738;2024-03-02T12:36:53;2.20;;;0.20;;
61391;SDS011;47261;52.892;5.738;2024-03-02T12:39:19;2.47;;;0.30;;
61391;SDS011;47261;52.892;5.738;2024-03-02T12:41:46;3.50;;;0.30;;
61391;SDS011;47261;52.892;5.738;2024-03-02T12:44:11;5.13;;;0.50;;
61391;SDS011;47261;52.892;5.738;2024-03-02T12:46:37;2.00;;;0.20;;
61391;SDS011;47261;52.892;5.738;2024-03-02T12:49:10;1.37;;;0.20;;
61391;SDS011;47261;52.892;5.738;2024-03-02T12:51:37;4.28;;;0.40;;
61391;SDS011;47261;52.892;5.738;2024-03-02T12:54:05;2.72;;;0.30;;
61391;SDS011;47261;52.892;5.738;2024-03-02T12:56:31;3.40;;;0.38;;
61391;SDS011;47261;52.892;5.738;2024-03-02T12:58:58;2.00;;;0.73;;
61391;SDS011;47261;52.892;5.738;2024-03-02T13:01:24;2.83;;;0.30;;
61391;SDS011;47261;52.892;5.738;2024-03-02T13:03:50;2.70;;;0.28;;
61391;SDS011;47261;52.892;5.738;2024-03-02T13:06:18;4.70;;;0.35;;
61391;SDS011;47261;52.892;5.738;2024-03-02T13:08:45;0.98;;;0.25;;
61391;SDS011;47261;52.892;5.738;2024-03-02T13:11:11;5.53;;;0.30;;
61391;SDS011;47261;52.892;5.738;2024-03-02T13:13:38;2.45;;;0.30;;
61391;SDS011;47261;52.892;5.738;2024-03-02T13:16:08;1.77;;;0.20;;
61391;SDS011;47261;52.892;5.738;2024-03-02T13:18:41;2.75;;;0.30;;
61391;SDS011;47261;52.892;5.738;2024-03-02T13:21:07;2.92;;;0.30;;
61391;SDS011;47261;52.892;5.738;2024-03-02T13:23:33;4.73;;;0.33;;
61391;SDS011;47261;52.892;5.738;2024-03-02T13:25:59;2.40;;;0.40;;
61391;SDS011;47261;52.892;5.738;2024-03-02T13:28:25;4.67;;;0.53;;
61391;SDS011;47261;52.892;5.738;2024-03-02T13:30:50;2.00;;;0.50;;
61391;SDS011;47261;52.892;5.738;2024-03-02T13:33:16;2.30;;;0.47;;
61391;SDS011;47261;52.892;5.738;2024-03-02T13:35:47;3.50;;;0.60;;
61391;SDS011;47261;52.892;5.738;2024-03-02T13:38:19;2.40;;;0.30;;
61391;SDS011;47261;52.892;5.738;2024-03-02T13:40:45;1.80;;;0.30;;
61391;SDS011;47261;52.892;5.738;2024-03-02T13:43:11;3.70;;;0.38;;
61391;SDS011;47261;52.892;5.738;2024-03-02T13:45:40;3.10;;;0.30;;
61391;SDS011;47261;52.892;5.738;2024-03-02T13:48:06;2.23;;;0.27;;
61391;SDS011;47261;52.892;5.738;2024-03-02T13:50:32;2.83;;;0.40;;
61391;SDS011;47261;52.892;5.738;2024-03-02T13:52:58;3.85;;;0.50;;
61391;SDS011;47261;52.892;5.738;2024-03-02T13:55:24;1.90;;;0.30;;
61391;SDS011;47261;52.892;5.738;2024-03-02T13:57:49;5.38;;;0.40;;
61391;SDS011;47261;52.892;5.738;2024-03-02T14:00:16;4.33;;;1.03;;
61391;SDS011;47261;52.892;5.738;2024-03-02T14:02:42;4.17;;;0.60;;
61391;SDS011;47261;52.892;5.738;2024-03-02T14:05:08;4.40;;;0.80;;
61391;SDS011;47261;52.892;5.738;2024-03-02T14:07:38;3.63;;;0.80;;
61391;SDS011;47261;52.892;5.738;2024-03-02T14:10:05;2.92;;;0.50;;
61391;SDS011;47261;52.892;5.738;2024-03-02T14:12:30;2.17;;;0.53;;
61391;SDS011;47261;52.892;5.738;2024-03-02T14:14:56;1.17;;;0.30;;
61391;SDS011;47261;52.892;5.738;2024-03-02T14:17:27;1.98;;;0.47;;
61391;SDS011;47261;52.892;5.738;2024-03-02T14:19:53;3.28;;;0.30;;
61391;SDS011;47261;52.892;5.738;2024-03-02T14:22:22;2.80;;;0.43;;
61391;SDS011;47261;52.892;5.738;2024-03-02T14:24:47;3.67;;;0.80;;
61391;SDS011;47261;52.892;5.738;2024-03-02T14:27:14;2.22;;;0.50;;
61391;SDS011;47261;52.892;5.738;2024-03-02T14:29:40;2.07;;;0.43;;
61391;SDS011;47261;52.892;5.738;2024-03-02T14:32:07;4.40;;;0.98;;
61391;SDS011;47261;52.892;5.738;2024-03-02T14:34:33;3.23;;;0.50;;
61391;SDS011;47261;52.892;5.738;2024-03-02T14:36:59;2.65;;;0.60;;
61391;SDS011;47261;52.892;5.738;2024-03-02T14:39:25;3.75;;;0.70;;
61391;SDS011;47261;52.892;5.738;2024-03-02T14:41:51;4.87;;;0.77;;
61391;SDS011;47261;52.892;5.738;2024-03-02T14:44:17;7.00;;;1.23;;
61391;SDS011;47261;52.892;5.738;2024-03-02T14:46:43;2.63;;;0.77;;
61391;SDS011;47261;52.892;5.738;2024-03-02T14:49:12;4.15;;;1.00;;
61391;SDS011;47261;52.892;5.738;2024-03-02T14:51:38;2.85;;;0.63;;
61391;SDS011;47261;52.892;5.738;2024-03-02T14:54:03;3.40;;;0.80;;
61391;SDS011;47261;52.892;5.738;2024-03-02T14:56:29;4.70;;;0.90;;
61391;SDS011;47261;52.892;5.738;2024-03-02T14:58:55;3.73;;;0.97;;
61391;SDS011;47261;52.892;5.738;2024-03-02T15:01:20;3.50;;;0.90;;
61391;SDS011;47261;52.892;5.738;2024-03-02T15:03:48;3.10;;;0.60;;
61391;SDS011;47261;52.892;5.738;2024-03-02T15:06:14;1.67;;;0.60;;